createdAt,value
2019-01-12T00:01:09.594Z,20.50
2019-01-12T00:03:40.283Z,13.37
2019-01-12T00:06:10.990Z,9.60
2019-01-12T00:08:41.678Z,21.77
2019-01-12T00:11:12.318Z,14.37
2019-01-12T00:13:42.980Z,14.97
2019-01-12T00:16:13.906Z,13.77
2019-01-12T00:18:44.627Z,14.27
2019-01-12T00:21:15.356Z,15.37
2019-01-12T00:23:46.183Z,15.67
2019-01-12T00:26:16.957Z,17.60
2019-01-12T00:28:47.714Z,16.10
2019-01-12T00:31:18.414Z,16.20
2019-01-12T00:33:50.226Z,10.97
2019-01-12T00:36:20.941Z,17.70
2019-01-12T00:38:51.794Z,8.00
2019-01-12T00:41:22.468Z,14.17
2019-01-12T00:43:53.233Z,16.50
2019-01-12T00:46:24.021Z,21.43
2019-01-12T00:48:54.710Z,11.30
2019-01-12T00:51:25.458Z,16.17
2019-01-12T00:53:56.146Z,14.87
2019-01-12T00:56:26.894Z,16.67
2019-01-12T00:58:58.053Z,9.87
2019-01-12T01:01:28.838Z,25.40
2019-01-12T01:03:59.585Z,15.30
2019-01-12T01:06:30.229Z,16.53
2019-01-12T01:09:00.891Z,11.23
2019-01-12T01:11:31.594Z,16.47
2019-01-12T01:14:02.314Z,9.83
2019-01-12T01:16:33.995Z,14.47
2019-01-12T01:19:04.782Z,8.50
2019-01-12T01:21:35.519Z,8.90
2019-01-12T01:24:06.236Z,13.30
2019-01-12T01:26:37.033Z,10.87
2019-01-12T01:29:07.785Z,13.90
2019-01-12T01:31:38.556Z,15.00
2019-01-12T01:34:09.305Z,10.70
2019-01-12T01:36:41.705Z,16.33
2019-01-12T01:39:12.397Z,15.43
2019-01-12T01:41:43.137Z,9.83
2019-01-12T01:44:13.830Z,10.43
2019-01-12T01:46:44.580Z,10.80
2019-01-12T01:49:15.368Z,7.23
2019-01-12T01:51:47.675Z,9.57
2019-01-12T02:10:02.195Z,10.97
2019-01-12T02:12:32.961Z,5.10
2019-01-12T02:15:03.618Z,13.30
2019-01-12T02:17:35.571Z,5.73
2019-01-12T02:20:06.503Z,10.10
2019-01-12T02:22:37.304Z,7.67
2019-01-12T02:25:08.065Z,5.67
2019-01-12T02:27:38.809Z,9.87
2019-01-12T02:30:14.198Z,11.40
2019-01-12T02:32:45.126Z,7.87
2019-01-12T02:35:16.093Z,8.03
2019-01-12T02:37:47.598Z,8.87
2019-01-12T02:40:18.291Z,7.83
2019-01-12T02:42:48.953Z,12.73
2019-01-12T02:45:19.572Z,12.33
2019-01-12T02:47:50.290Z,14.20
2019-01-12T02:50:20.978Z,8.30
2019-01-12T02:52:51.672Z,9.70
2019-01-12T02:55:22.412Z,6.97
2019-01-12T02:57:53.104Z,11.40
2019-01-12T03:00:23.826Z,11.90
2019-01-12T03:02:54.996Z,11.57
2019-01-12T03:05:25.636Z,13.07
2019-01-12T03:07:56.528Z,15.23
2019-01-12T03:10:27.204Z,17.30
2019-01-12T03:12:57.903Z,24.40
2019-01-12T03:15:28.536Z,24.43
2019-01-12T03:17:59.196Z,24.60
2019-01-12T03:20:29.932Z,30.53
2019-01-12T03:23:00.679Z,28.57
2019-01-12T03:25:31.331Z,36.57
2019-01-12T03:28:01.978Z,46.83
2019-01-12T03:30:32.718Z,45.63
2019-01-12T03:33:03.496Z,43.37
2019-01-12T03:35:34.147Z,47.13
2019-01-12T03:38:04.872Z,43.13
2019-01-12T03:40:35.505Z,51.83
2019-01-12T03:43:06.312Z,44.30
2019-01-12T03:45:37.099Z,46.40
2019-01-12T03:48:07.845Z,50.77
2019-01-12T03:50:38.538Z,51.13
2019-01-12T03:53:09.322Z,41.63
2019-01-12T03:55:40.019Z,47.50
2019-01-12T03:58:10.714Z,46.77
2019-01-12T04:00:41.381Z,41.73
2019-01-12T04:03:12.130Z,43.07
2019-01-12T04:05:42.866Z,43.90
2019-01-12T04:08:13.617Z,37.40
2019-01-12T04:10:44.249Z,39.10
2019-01-12T04:13:14.994Z,37.50
2019-01-12T04:15:45.801Z,38.50
2019-01-12T04:18:16.580Z,37.93
2019-01-12T04:20:47.258Z,30.80
2019-01-12T04:23:17.995Z,31.50
2019-01-12T04:25:48.710Z,36.23
2019-01-12T04:28:19.440Z,34.90
2019-01-12T04:30:51.168Z,32.43
2019-01-12T04:33:22.043Z,30.00
2019-01-12T04:35:53.057Z,28.50
2019-01-12T04:38:23.723Z,23.20
2019-01-12T04:40:54.439Z,26.37
2019-01-12T04:43:25.211Z,24.97
2019-01-12T04:45:55.872Z,29.37
2019-01-12T04:48:26.601Z,22.10
2019-01-12T04:50:57.236Z,22.93
2019-01-12T04:53:27.950Z,22.83
2019-01-12T04:55:58.696Z,26.37
2019-01-12T04:58:29.456Z,21.10
2019-01-12T05:01:00.095Z,23.03
2019-01-12T05:03:30.747Z,19.60
2019-01-12T05:06:01.387Z,19.93
2019-01-12T05:08:32.122Z,22.07
2019-01-12T05:11:02.818Z,19.27
2019-01-12T05:13:34.043Z,19.53
2019-01-12T05:16:04.790Z,20.50
2019-01-12T05:18:35.557Z,23.07
2019-01-12T05:21:07.054Z,16.83
2019-01-12T05:23:37.865Z,17.10
2019-01-12T05:26:08.634Z,18.33
2019-01-12T05:28:39.391Z,19.00
2019-01-12T05:31:10.191Z,23.57
2019-01-12T05:33:40.991Z,16.33
2019-01-12T05:36:12.287Z,18.83
2019-01-12T05:38:43.097Z,20.10
2019-01-12T05:41:13.910Z,20.53
2019-01-12T05:43:44.631Z,20.70
2019-01-12T05:46:15.533Z,19.37
2019-01-12T05:48:46.478Z,19.63
2019-01-12T05:51:17.234Z,16.03
2019-01-12T05:53:48.134Z,21.13
2019-01-12T05:56:18.807Z,20.87
2019-01-12T05:58:49.597Z,19.13
2019-01-12T06:01:20.359Z,18.73
2019-01-12T06:03:52.353Z,20.30
2019-01-12T06:06:23.106Z,21.63
2019-01-12T06:08:53.870Z,18.07
2019-01-12T06:11:24.535Z,25.43
2019-01-12T06:13:55.357Z,20.77
2019-01-12T06:16:27.688Z,21.10
2019-01-12T06:18:58.468Z,21.07
2019-01-12T06:21:29.290Z,21.50
2019-01-12T06:24:00.053Z,21.87
2019-01-12T06:26:30.842Z,18.73
2019-01-12T06:29:01.732Z,21.10
2019-01-12T06:31:32.475Z,21.27
2019-01-12T06:34:03.290Z,24.03
2019-01-12T06:36:34.095Z,20.60
2019-01-12T06:39:08.599Z,26.37
2019-01-12T06:41:39.350Z,23.57
2019-01-12T06:44:10.131Z,20.67
2019-01-12T06:46:40.781Z,27.93
2019-01-12T06:49:11.508Z,24.07
2019-01-12T06:51:43.067Z,23.70
2019-01-12T06:54:13.732Z,23.47
2019-01-12T06:56:45.334Z,21.93
2019-01-12T06:59:16.146Z,26.47
2019-01-12T07:01:46.952Z,24.60
2019-01-12T07:04:17.694Z,20.63
2019-01-12T07:06:48.511Z,25.57
2019-01-12T07:09:19.364Z,29.07
2019-01-12T07:11:50.177Z,27.57
2019-01-12T07:14:21.013Z,24.40
2019-01-12T07:16:51.742Z,26.27
2019-01-12T07:19:22.516Z,24.90
2019-01-12T07:21:53.270Z,24.87
2019-01-12T07:24:23.929Z,28.40
2019-01-12T07:26:54.683Z,28.57
2019-01-12T07:29:25.500Z,30.37
2019-01-12T07:31:56.252Z,25.80
2019-01-12T07:34:27.021Z,29.00
2019-01-12T07:36:57.739Z,28.57
2019-01-12T07:39:28.496Z,29.80
2019-01-12T07:41:59.596Z,39.13
2019-01-12T07:44:30.464Z,33.93
2019-01-12T07:47:01.118Z,35.13
2019-01-12T07:49:31.897Z,32.17
2019-01-12T07:52:04.270Z,27.33
2019-01-12T07:54:35.018Z,32.73
2019-01-12T07:57:05.856Z,27.67
2019-01-12T07:59:36.590Z,35.37
2019-01-12T08:02:07.374Z,31.93
2019-01-12T08:04:49.558Z,28.67
2019-01-12T08:07:20.311Z,28.20
2019-01-12T08:09:50.982Z,29.40
2019-01-12T08:12:21.962Z,35.07
2019-01-12T08:14:52.761Z,30.10
2019-01-12T08:17:23.438Z,32.10
2019-01-12T08:19:54.186Z,30.03
2019-01-12T08:22:24.930Z,22.13
2019-01-12T08:24:55.691Z,33.93
2019-01-12T08:27:26.584Z,39.03
2019-01-12T08:29:57.254Z,37.33
2019-01-12T08:32:28.065Z,32.23
2019-01-12T08:34:59.012Z,36.00
2019-01-12T08:37:31.468Z,35.30
2019-01-12T08:40:02.238Z,36.37
2019-01-12T08:42:34.879Z,32.60
2019-01-12T08:45:07.229Z,37.17
2019-01-12T08:47:38.018Z,36.10
2019-01-12T08:50:14.630Z,36.63
2019-01-12T08:52:45.595Z,39.23
2019-01-12T08:55:16.460Z,41.87
2019-01-12T08:57:47.314Z,37.17
2019-01-12T09:00:20.039Z,40.27
2019-01-12T09:02:51.087Z,34.97
2019-01-12T09:05:21.807Z,53.83
2019-01-12T09:07:52.592Z,37.47
2019-01-12T09:10:24.522Z,32.50
2019-01-12T09:12:55.162Z,40.93
2019-01-12T09:15:25.932Z,33.17
2019-01-12T09:17:56.792Z,45.83
2019-01-12T09:20:27.569Z,50.67
2019-01-12T09:22:58.268Z,47.73
2019-01-12T09:25:29.118Z,39.53
2019-01-12T09:27:59.809Z,51.50
2019-01-12T09:30:30.471Z,44.57
2019-01-12T09:33:01.218Z,50.10
2019-01-12T09:35:31.993Z,58.47
2019-01-12T09:38:02.794Z,53.20
2019-01-12T09:40:33.599Z,53.70
2019-01-12T09:43:04.373Z,61.20
2019-01-12T09:45:35.211Z,52.20
2019-01-12T09:48:06.267Z,50.50
2019-01-12T09:50:37.079Z,51.70
2019-01-12T09:53:07.839Z,62.73
2019-01-12T09:55:40.141Z,54.87
2019-01-12T09:58:10.923Z,66.33
2019-01-12T10:00:41.734Z,52.03
2019-01-12T10:03:12.621Z,38.33
2019-01-12T10:05:43.271Z,50.03
2019-01-12T10:08:14.036Z,34.97
2019-01-12T10:10:44.807Z,45.53
2019-01-12T10:13:15.602Z,42.10
2019-01-12T10:15:46.416Z,41.07
2019-01-12T10:18:17.132Z,35.00
2019-01-12T10:20:49.419Z,34.70
2019-01-12T10:23:20.193Z,34.37
2019-01-12T10:25:51.009Z,33.40
2019-01-12T10:28:22.162Z,33.93
2019-01-12T10:30:52.922Z,32.10
2019-01-12T10:33:23.808Z,33.17
2019-01-12T10:35:54.556Z,31.53
2019-01-12T10:38:25.323Z,31.97
2019-01-12T10:40:56.156Z,25.47
2019-01-12T10:43:26.938Z,34.63
2019-01-12T10:45:59.882Z,29.37
2019-01-12T10:48:30.807Z,27.77
2019-01-12T10:51:01.582Z,26.70
2019-01-12T10:53:32.374Z,28.90
2019-01-12T10:56:03.145Z,29.63
2019-01-12T10:58:33.891Z,37.90
2019-01-12T11:01:05.119Z,31.63
2019-01-12T11:03:35.869Z,29.77
2019-01-12T11:06:06.652Z,23.33
2019-01-12T11:08:37.919Z,28.83
2019-01-12T11:11:08.645Z,34.93
2019-01-12T11:13:39.371Z,36.60
2019-01-12T11:16:10.180Z,36.83
2019-01-12T11:18:43.537Z,37.30
2019-01-12T11:21:15.936Z,33.93
2019-01-12T11:23:46.753Z,37.33
2019-01-12T11:26:17.580Z,29.37
2019-01-12T11:28:48.521Z,31.57
2019-01-12T11:31:19.901Z,32.60
2019-01-12T11:33:50.813Z,27.57
2019-01-12T11:36:21.581Z,29.93
2019-01-12T11:38:52.255Z,31.40
2019-01-12T11:41:22.990Z,36.97
2019-01-12T11:43:53.728Z,35.10
2019-01-12T11:46:24.346Z,34.60
2019-01-12T11:48:55.113Z,29.73
2019-01-12T11:51:29.123Z,28.10
2019-01-12T11:53:59.872Z,23.37
2019-01-12T11:56:32.339Z,28.60
2019-01-12T11:59:03.575Z,34.00
2019-01-12T12:01:34.370Z,24.57
2019-01-12T12:04:06.150Z,23.83
2019-01-12T12:06:36.950Z,19.67
2019-01-12T12:09:08.979Z,27.47
2019-01-12T12:11:39.728Z,26.43
2019-01-12T12:14:10.575Z,26.60
2019-01-12T12:16:41.463Z,26.00
2019-01-12T12:19:12.715Z,23.30
2019-01-12T12:21:45.221Z,31.13
2019-01-12T12:24:16.023Z,28.70
2019-01-12T12:26:46.883Z,22.50
2019-01-12T12:29:17.671Z,30.33
2019-01-12T12:31:48.466Z,30.63
2019-01-12T12:34:19.164Z,19.57
2019-01-12T12:36:50.095Z,20.57
2019-01-12T12:39:21.078Z,19.77
2019-01-12T12:41:52.954Z,25.63
2019-01-12T12:44:23.683Z,26.57
2019-01-12T12:46:54.542Z,17.23
2019-01-12T12:49:25.425Z,16.27
2019-01-12T12:51:56.377Z,19.70
2019-01-12T12:54:27.266Z,24.13
2019-01-12T12:56:58.134Z,20.63
2019-01-12T12:59:29.033Z,18.13
2019-01-12T13:01:59.983Z,19.40
2019-01-12T13:04:31.416Z,17.87
2019-01-12T13:07:02.423Z,23.77
2019-01-12T13:09:33.339Z,19.70
2019-01-12T13:12:04.415Z,18.50
2019-01-12T13:14:35.242Z,24.50
2019-01-12T13:17:06.111Z,17.43
2019-01-12T13:19:36.853Z,28.63
2019-01-12T13:22:08.776Z,18.40
2019-01-12T13:24:39.789Z,23.93
2019-01-12T13:27:10.525Z,23.27
2019-01-12T13:29:41.386Z,14.80
2019-01-12T13:32:12.159Z,14.63
2019-01-12T13:34:42.843Z,25.60
2019-01-12T13:37:13.713Z,18.53
2019-01-12T13:39:44.552Z,24.80
2019-01-12T13:42:15.298Z,16.13
2019-01-12T13:44:47.882Z,20.87
2019-01-12T13:47:20.992Z,19.30
2019-01-12T13:49:51.184Z,22.67
2019-01-12T13:52:21.964Z,19.37
2019-01-12T13:54:53.065Z,28.17
2019-01-12T13:57:23.878Z,15.30
2019-01-12T13:59:54.590Z,19.40
2019-01-12T14:02:25.367Z,22.40
2019-01-12T14:04:56.073Z,14.77
2019-01-12T14:07:27.022Z,18.60
2019-01-12T14:09:58.804Z,21.30
2019-01-12T14:12:30.183Z,21.33
2019-01-12T14:15:01.111Z,15.93
2019-01-12T14:17:34.530Z,13.43
2019-01-12T14:20:08.021Z,15.03
2019-01-12T14:22:38.837Z,17.17
2019-01-12T14:25:10.607Z,18.90
2019-01-12T14:27:41.378Z,16.67
2019-01-12T14:30:15.670Z,19.37
2019-01-12T14:32:46.962Z,19.63
2019-01-12T14:35:17.841Z,19.37
2019-01-12T14:37:49.175Z,16.90
2019-01-12T14:40:19.982Z,12.00
2019-01-12T14:42:50.849Z,18.60
2019-01-12T14:45:30.674Z,17.20
2019-01-12T14:48:01.530Z,10.43
2019-01-12T14:50:32.418Z,25.90
2019-01-12T14:53:04.138Z,17.53
2019-01-12T14:55:34.960Z,12.50
2019-01-12T14:58:06.608Z,22.43
2019-01-12T15:00:37.369Z,15.47
2019-01-12T15:03:09.786Z,13.60
2019-01-12T15:05:42.079Z,13.53
2019-01-12T15:08:12.989Z,21.53
2019-01-12T15:10:43.741Z,11.87
2019-01-12T15:13:15.498Z,12.03
2019-01-12T15:15:46.395Z,20.97
2019-01-12T15:18:17.284Z,12.60
2019-01-12T15:20:48.110Z,18.30
2019-01-12T15:23:18.966Z,21.77
2019-01-12T15:25:49.671Z,18.60
2019-01-12T15:28:20.482Z,26.63
2019-01-12T15:30:51.148Z,18.47
2019-01-12T15:33:21.967Z,26.07
2019-01-12T15:35:52.702Z,11.80
2019-01-12T15:38:23.509Z,18.50
2019-01-12T15:40:54.276Z,18.97
2019-01-12T15:43:25.082Z,18.07
2019-01-12T15:45:55.903Z,20.33
2019-01-12T15:48:26.642Z,21.97
2019-01-12T15:50:58.210Z,28.50
2019-01-12T15:53:28.955Z,29.87
2019-01-12T15:55:59.813Z,21.57
2019-01-12T15:58:30.627Z,21.67
2019-01-12T16:01:01.422Z,27.07
2019-01-12T16:03:32.154Z,17.70
2019-01-12T16:06:02.942Z,18.30
2019-01-12T16:08:35.144Z,15.73
2019-01-12T16:11:06.079Z,15.43
2019-01-12T16:13:38.522Z,19.50
2019-01-12T16:16:09.285Z,13.33
2019-01-12T16:18:40.043Z,13.43
2019-01-12T16:21:10.814Z,11.63
2019-01-12T16:23:42.367Z,15.07
2019-01-12T16:26:18.939Z,12.73
2019-01-12T16:28:49.922Z,13.33
2019-01-12T16:31:21.535Z,16.93
2019-01-12T16:33:52.472Z,15.20
2019-01-12T16:36:24.113Z,20.00
2019-01-12T16:38:54.971Z,22.20
2019-01-12T16:41:32.305Z,20.37
2019-01-12T16:44:00.158Z,18.30
2019-01-12T16:46:31.479Z,25.07
2019-01-12T16:49:03.552Z,21.43
2019-01-12T16:51:34.675Z,17.17
2019-01-12T16:54:07.417Z,20.83
2019-01-12T16:56:39.825Z,21.33
2019-01-12T16:59:10.600Z,24.83
2019-01-12T17:01:42.911Z,21.97
2019-01-12T17:04:13.600Z,22.40
2019-01-12T17:06:46.102Z,22.80
2019-01-12T17:09:16.862Z,18.13
2019-01-12T17:11:47.707Z,26.87
2019-01-12T17:14:18.481Z,21.80
2019-01-12T17:16:49.325Z,21.10
2019-01-12T17:19:20.144Z,16.73
2019-01-12T17:21:51.117Z,17.63
2019-01-12T17:24:22.047Z,14.53
2019-01-12T17:26:52.982Z,33.77
2019-01-12T17:29:23.864Z,26.20
2019-01-12T17:31:54.650Z,25.43
2019-01-12T17:34:25.470Z,31.07
2019-01-12T17:36:58.904Z,28.13
2019-01-12T17:39:29.558Z,22.03
2019-01-12T17:42:00.411Z,23.60
2019-01-12T17:44:31.422Z,19.77
2019-01-12T17:47:05.311Z,22.83
2019-01-12T17:49:36.189Z,17.57
2019-01-12T17:52:09.660Z,26.77
2019-01-12T17:54:40.457Z,30.20
2019-01-12T17:57:11.881Z,31.17
2019-01-12T17:59:42.684Z,23.07
2019-01-12T18:02:13.425Z,22.33
2019-01-12T18:04:44.327Z,24.17
2019-01-12T18:07:15.121Z,28.90
2019-01-12T18:09:46.038Z,27.03
2019-01-12T18:12:16.889Z,23.87
2019-01-12T18:14:47.862Z,26.83
2019-01-12T18:17:18.775Z,27.83
2019-01-12T18:19:49.668Z,6.10
2019-01-12T18:22:20.550Z,19.00
2019-01-12T18:24:51.483Z,35.63
2019-01-12T18:27:22.321Z,23.73
2019-01-12T18:29:53.105Z,21.67
2019-01-12T18:32:23.875Z,24.57
2019-01-12T18:34:54.722Z,26.20
2019-01-12T18:37:26.550Z,23.87
2019-01-12T18:39:59.028Z,34.27
2019-01-12T18:42:49.453Z,33.77
2019-01-12T18:45:26.876Z,29.03
2019-01-12T18:48:00.641Z,21.17
2019-01-12T18:50:34.696Z,34.53
2019-01-12T18:53:06.551Z,36.43
2019-01-12T18:55:49.779Z,25.23
2019-01-12T18:58:24.113Z,25.33
2019-01-12T19:00:58.280Z,28.30
2019-01-12T19:03:30.780Z,24.23
2019-01-12T19:06:04.547Z,21.30
2019-01-12T19:08:40.556Z,27.57
2019-01-12T19:11:16.800Z,16.10
2019-01-12T19:13:51.783Z,28.10
2019-01-12T19:16:23.185Z,19.43
2019-01-12T19:18:54.245Z,21.57
2019-01-12T19:21:25.182Z,23.77
2019-01-12T19:23:55.969Z,20.93
2019-01-12T19:26:26.849Z,31.00
2019-01-12T19:28:57.811Z,27.53
2019-01-12T19:31:28.751Z,23.53
2019-01-12T19:33:59.863Z,21.40
2019-01-12T19:36:30.807Z,26.83
2019-01-12T19:39:02.919Z,30.00
2019-01-12T19:41:38.257Z,31.20
2019-01-12T19:44:10.489Z,35.60
2019-01-12T19:46:42.780Z,30.90
2019-01-12T19:49:14.752Z,21.83
2019-01-12T19:51:47.884Z,27.73
2019-01-12T19:54:21.592Z,30.20
2019-01-12T19:56:52.604Z,29.27
2019-01-12T19:59:24.350Z,25.70
2019-01-12T20:01:57.544Z,34.10
2019-01-12T20:04:31.185Z,28.43
2019-01-12T20:07:03.050Z,27.67
2019-01-12T20:09:35.426Z,27.30
2019-01-12T20:12:06.415Z,24.70
2019-01-12T20:14:37.355Z,27.97
2019-01-12T20:17:09.672Z,33.60
2019-01-12T20:19:41.951Z,25.87
2019-01-12T20:22:12.939Z,27.37
2019-01-12T20:24:43.918Z,29.27
2019-01-12T20:27:37.201Z,34.83
2019-01-12T20:30:20.031Z,28.70
2019-01-12T20:33:17.612Z,29.90
2019-01-12T20:36:30.062Z,30.90
2019-01-12T20:39:18.574Z,25.70
2019-01-12T20:42:22.150Z,24.10
2019-01-12T20:45:49.203Z,26.07
2019-01-12T20:48:51.134Z,32.40
2019-01-12T20:52:11.388Z,23.23
2019-01-12T20:55:18.862Z,23.80
2019-01-12T20:58:26.453Z,27.53
2019-01-12T21:01:54.238Z,25.37
2019-01-12T21:05:15.442Z,30.17
2019-01-12T21:08:22.154Z,25.70
2019-01-12T21:11:33.474Z,26.07
2019-01-12T21:14:34.581Z,26.77
2019-01-12T21:17:10.490Z,29.13
2019-01-12T21:19:47.735Z,30.80
2019-01-12T21:22:14.210Z,24.57
2019-01-12T21:24:45.602Z,33.33
2019-01-12T21:27:16.581Z,23.13
2019-01-12T21:29:47.531Z,22.90
2019-01-12T21:32:18.356Z,33.27
2019-01-12T21:34:52.082Z,26.17
2019-01-12T21:37:23.138Z,21.83
2019-01-12T21:40:03.666Z,26.20
2019-01-12T21:42:34.557Z,35.37
2019-01-12T21:45:07.431Z,21.90
2019-01-12T21:47:38.563Z,25.50
2019-01-12T21:50:11.775Z,24.07
2019-01-12T21:52:42.756Z,24.17
2019-01-12T21:55:13.622Z,27.27
2019-01-12T21:57:45.468Z,31.90
2019-01-12T22:00:17.276Z,22.40
2019-01-12T22:02:48.413Z,28.03
2019-01-12T22:05:19.246Z,28.83
2019-01-12T22:07:50.064Z,34.80
2019-01-12T22:10:20.915Z,25.03
2019-01-12T22:12:51.783Z,25.87
2019-01-12T22:15:22.650Z,21.27
2019-01-12T22:17:53.457Z,26.57
2019-01-12T22:20:24.314Z,26.10
2019-01-12T22:22:55.187Z,33.10
2019-01-12T22:25:25.968Z,25.90
2019-01-12T22:27:56.801Z,32.60
2019-01-12T22:30:27.557Z,29.83
2019-01-12T22:32:58.435Z,27.73
2019-01-12T22:35:29.195Z,30.13
2019-01-12T22:37:59.897Z,31.50
2019-01-12T22:40:30.699Z,22.07
2019-01-12T22:43:01.425Z,23.37
2019-01-12T22:45:32.210Z,29.33
2019-01-12T22:48:03.027Z,28.20
2019-01-12T22:50:34.662Z,25.60
2019-01-12T22:53:05.463Z,29.00
2019-01-12T22:55:36.248Z,21.77
2019-01-12T22:58:07.843Z,20.77
2019-01-12T23:01:11.982Z,27.53
2019-01-12T23:03:47.967Z,37.77
2019-01-12T23:06:18.722Z,25.27
2019-01-12T23:08:49.578Z,26.80
2019-01-12T23:11:20.350Z,27.33
2019-01-12T23:13:51.194Z,18.37
2019-01-12T23:16:22.018Z,20.73
2019-01-12T23:18:52.947Z,25.23
2019-01-12T23:21:23.835Z,25.30
2019-01-12T23:23:54.550Z,27.30
2019-01-12T23:26:25.240Z,28.90
2019-01-12T23:29:07.648Z,25.63
2019-01-12T23:31:38.425Z,30.80
2019-01-12T23:34:09.221Z,22.67
2019-01-12T23:36:40.001Z,22.53
2019-01-12T23:39:11.774Z,26.10
2019-01-12T23:41:42.566Z,14.67
2019-01-12T23:44:15.003Z,23.37
2019-01-12T23:46:46.317Z,29.47
2019-01-12T23:49:18.679Z,24.70
2019-01-12T23:51:49.457Z,23.70
2019-01-12T23:54:20.246Z,22.10
2019-01-12T23:56:51.078Z,21.67
2019-01-12T23:59:21.845Z,25.87
